createdAt,value
2022-10-06T00:00:01.236Z,69.74
2022-10-06T00:02:28.302Z,69.67
2022-10-06T00:04:54.965Z,69.77
2022-10-06T00:07:21.544Z,69.96
2022-10-06T00:09:48.055Z,69.68
2022-10-06T00:12:14.695Z,69.78
2022-10-06T00:14:41.262Z,69.93
2022-10-06T00:17:07.759Z,69.88
2022-10-06T00:19:34.556Z,70.01
2022-10-06T00:22:01.064Z,69.82
2022-10-06T00:24:27.567Z,69.68
2022-10-06T00:26:54.150Z,69.99
2022-10-06T00:29:20.758Z,70.04
2022-10-06T00:31:47.280Z,69.91
2022-10-06T00:34:13.817Z,70.16
2022-10-06T00:36:40.339Z,70.21
2022-10-06T00:39:06.960Z,70.13
2022-10-06T00:41:33.672Z,70.28
2022-10-06T00:44:00.628Z,70.61
2022-10-06T00:46:34.047Z,70.28
2022-10-06T00:49:24.003Z,70.40
2022-10-06T00:52:03.528Z,69.89
2022-10-06T00:54:31.336Z,70.17
2022-10-06T00:56:57.911Z,69.92
2022-10-06T00:59:24.440Z,70.34
2022-10-06T01:02:00.932Z,69.97
2022-10-06T01:04:29.689Z,70.06
2022-10-06T01:06:57.798Z,70.25
2022-10-06T01:09:24.449Z,70.30
2022-10-06T01:11:53.143Z,70.01
2022-10-06T01:14:20.326Z,70.25
2022-10-06T01:16:51.973Z,70.17
2022-10-06T01:19:37.584Z,70.16
2022-10-06T01:22:05.910Z,70.13
2022-10-06T01:24:32.724Z,70.32
2022-10-06T01:27:00.469Z,70.42
2022-10-06T01:29:27.171Z,70.23
2022-10-06T01:31:54.141Z,70.14
2022-10-06T01:34:20.645Z,70.32
2022-10-06T01:36:47.364Z,70.02
2022-10-06T01:39:13.859Z,70.17
2022-10-06T01:41:40.370Z,70.18
2022-10-06T01:44:06.904Z,70.13
2022-10-06T01:46:33.525Z,70.43
2022-10-06T01:49:00.080Z,70.33
2022-10-06T01:51:26.692Z,70.20
2022-10-06T01:53:53.225Z,70.26
2022-10-06T01:56:21.111Z,70.57
2022-10-06T01:58:48.360Z,70.36
2022-10-06T02:01:15.303Z,70.16
2022-10-06T02:03:42.097Z,70.49
2022-10-06T02:06:09.645Z,70.27
2022-10-06T02:08:36.264Z,70.34
2022-10-06T02:11:10.442Z,70.26
2022-10-06T02:13:37.861Z,70.39
2022-10-06T02:16:06.808Z,70.51
2022-10-06T02:18:34.061Z,70.36
2022-10-06T02:21:01.063Z,70.10
2022-10-06T02:23:27.719Z,70.18
2022-10-06T02:26:06.232Z,70.20
2022-10-06T02:28:33.142Z,70.41
2022-10-06T02:31:04.357Z,70.18
2022-10-06T02:33:31.419Z,70.04
2022-10-06T02:35:58.469Z,70.46
2022-10-06T02:38:25.895Z,70.17
2022-10-06T02:40:53.546Z,70.52
2022-10-06T02:43:21.110Z,70.13
2022-10-06T02:45:58.567Z,70.50
2022-10-06T02:48:26.681Z,70.44
2022-10-06T02:50:54.897Z,70.31
2022-10-06T02:53:21.685Z,70.47
2022-10-06T02:55:48.178Z,70.27
2022-10-06T02:58:14.709Z,70.42
2022-10-06T03:00:41.387Z,70.16
2022-10-06T03:03:07.927Z,70.15
2022-10-06T03:05:34.461Z,70.07
2022-10-06T03:08:00.995Z,70.27
2022-10-06T03:10:27.482Z,70.32
2022-10-06T03:12:53.969Z,70.04
2022-10-06T03:15:21.524Z,69.93
2022-10-06T03:17:52.476Z,70.46
2022-10-06T03:20:19.016Z,70.16
2022-10-06T03:22:45.565Z,70.36
2022-10-06T03:25:12.071Z,70.42
2022-10-06T03:27:38.568Z,70.40
2022-10-06T03:30:06.597Z,69.98
2022-10-06T03:32:33.171Z,70.13
2022-10-06T03:34:59.663Z,69.89
2022-10-06T03:37:28.401Z,70.29
2022-10-06T03:39:54.941Z,70.28
2022-10-06T03:42:21.428Z,70.02
2022-10-06T03:44:47.941Z,69.98
2022-10-06T03:47:17.256Z,70.23
2022-10-06T03:49:44.173Z,69.85
2022-10-06T03:52:10.918Z,69.84
2022-10-06T03:54:37.464Z,69.94
2022-10-06T03:57:04.304Z,69.98
2022-10-06T03:59:34.254Z,70.14
2022-10-06T04:02:00.907Z,69.99
2022-10-06T04:04:28.634Z,70.34
2022-10-06T04:06:55.263Z,70.12
2022-10-06T04:09:21.827Z,70.25
2022-10-06T04:11:48.627Z,70.19
2022-10-06T04:14:16.217Z,69.99
2022-10-06T04:16:45.251Z,69.97
2022-10-06T04:19:13.302Z,69.95
2022-10-06T04:21:41.628Z,69.98
2022-10-06T04:24:10.662Z,70.36
2022-10-06T04:26:42.179Z,69.96
2022-10-06T04:29:08.760Z,70.07
2022-10-06T04:31:37.186Z,70.16
2022-10-06T04:34:05.063Z,69.77
2022-10-06T04:36:38.236Z,70.24
2022-10-06T04:39:05.434Z,69.91
2022-10-06T04:41:34.568Z,70.11
2022-10-06T04:44:01.616Z,69.79
2022-10-06T04:46:42.654Z,70.14
2022-10-06T04:49:17.610Z,70.21
2022-10-06T04:51:46.091Z,70.19
2022-10-06T04:54:12.599Z,69.87
2022-10-06T04:56:39.116Z,69.79
2022-10-06T04:59:05.639Z,69.82
2022-10-06T05:01:35.121Z,69.78
2022-10-06T05:04:03.020Z,69.77
2022-10-06T05:06:32.410Z,69.79
2022-10-06T05:09:01.436Z,69.92
2022-10-06T05:11:28.415Z,69.89
2022-10-06T05:13:56.865Z,70.13
2022-10-06T05:16:27.061Z,70.09
2022-10-06T05:18:54.074Z,70.07
2022-10-06T05:21:22.627Z,70.07
2022-10-06T05:23:49.129Z,69.90
2022-10-06T05:26:19.179Z,70.01
2022-10-06T05:28:45.824Z,69.87
2022-10-06T05:31:20.497Z,69.96
2022-10-06T05:33:48.269Z,70.32
2022-10-06T05:36:16.714Z,70.25
2022-10-06T05:38:44.493Z,70.07
2022-10-06T05:41:12.589Z,70.00
2022-10-06T05:43:39.641Z,69.95
2022-10-06T05:46:10.630Z,69.95
2022-10-06T05:48:37.139Z,69.93
2022-10-06T05:51:09.381Z,69.95
2022-10-06T05:53:37.065Z,70.15
2022-10-06T05:56:14.955Z,69.91
2022-10-06T05:58:43.863Z,70.15
2022-10-06T06:01:16.541Z,69.82
2022-10-06T06:03:46.954Z,70.06
2022-10-06T06:06:28.519Z,69.67
2022-10-06T06:08:59.157Z,69.70
2022-10-06T06:11:27.786Z,70.13
2022-10-06T06:14:03.225Z,69.69
2022-10-06T06:16:33.319Z,69.53
2022-10-06T06:19:00.921Z,69.61
2022-10-06T06:21:28.332Z,69.80
2022-10-06T06:23:55.522Z,69.69
2022-10-06T06:26:24.063Z,69.62
2022-10-06T06:28:52.174Z,69.50
2022-10-06T06:31:24.027Z,69.71
2022-10-06T06:33:52.808Z,69.68
2022-10-06T06:36:26.388Z,69.57
2022-10-06T06:38:55.362Z,69.37
2022-10-06T06:41:29.912Z,69.30
2022-10-06T06:43:58.264Z,69.35
2022-10-06T06:46:26.288Z,69.35
2022-10-06T06:48:54.687Z,69.31
2022-10-06T06:51:24.409Z,69.22
2022-10-06T06:53:52.262Z,69.18
2022-10-06T06:56:19.799Z,69.28
2022-10-06T06:58:50.259Z,68.76
2022-10-06T07:01:19.533Z,69.14
2022-10-06T07:03:58.266Z,68.95
2022-10-06T07:06:28.873Z,68.88
2022-10-06T07:08:56.863Z,68.69
2022-10-06T07:11:26.239Z,68.56
2022-10-06T07:13:54.929Z,68.59
2022-10-06T07:16:40.881Z,68.67
2022-10-06T07:19:27.889Z,68.38
2022-10-06T07:22:18.649Z,68.50
2022-10-06T07:25:04.312Z,68.31
2022-10-06T07:27:32.646Z,68.31
2022-10-06T07:29:59.252Z,68.32
2022-10-06T07:32:27.581Z,68.04
2022-10-06T07:34:54.348Z,68.16
2022-10-06T07:37:21.159Z,67.82
2022-10-06T07:39:49.767Z,68.11
2022-10-06T07:42:17.552Z,67.62
2022-10-06T07:45:05.522Z,67.77
2022-10-06T07:47:32.800Z,67.84
2022-10-06T07:49:59.440Z,67.65
2022-10-06T07:52:28.840Z,67.50
2022-10-06T07:54:56.427Z,67.37
2022-10-06T07:57:23.179Z,67.25
2022-10-06T07:59:50.647Z,67.42
2022-10-06T08:02:19.187Z,67.30
2022-10-06T08:04:45.692Z,67.18
2022-10-06T08:07:12.634Z,66.95
2022-10-06T08:09:39.167Z,67.17
2022-10-06T08:12:25.692Z,66.91
2022-10-06T08:14:52.471Z,66.87
2022-10-06T08:17:19.191Z,66.67
2022-10-06T08:19:48.061Z,66.60
2022-10-06T08:22:15.974Z,66.61
2022-10-06T08:25:04.904Z,66.28
2022-10-06T08:27:29.521Z,66.30
2022-10-06T08:29:56.495Z,66.26
2022-10-06T08:32:23.541Z,66.25
2022-10-06T08:34:50.362Z,66.08
2022-10-06T08:37:20.960Z,66.13
2022-10-06T08:39:47.447Z,66.14
2022-10-06T08:42:18.657Z,66.17
2022-10-06T08:44:47.876Z,65.95
2022-10-06T08:47:18.262Z,65.88
2022-10-06T08:49:47.204Z,66.07
2022-10-06T08:52:31.985Z,66.18
2022-10-06T08:55:26.494Z,66.15
2022-10-06T08:58:31.688Z,66.24
2022-10-06T09:01:16.014Z,66.37
2022-10-06T09:03:48.474Z,66.32
2022-10-06T09:06:33.690Z,66.04
2022-10-06T09:09:15.340Z,66.09
2022-10-06T09:12:00.758Z,66.19
2022-10-06T09:14:34.790Z,65.92
2022-10-06T09:17:03.473Z,66.10
2022-10-06T09:19:39.894Z,65.98
2022-10-06T09:22:15.501Z,66.32
2022-10-06T09:24:47.106Z,66.32
2022-10-06T09:27:20.934Z,66.14
2022-10-06T09:29:50.823Z,66.22
2022-10-06T09:32:19.182Z,66.15
2022-10-06T09:34:51.627Z,66.27
2022-10-06T09:37:18.493Z,66.20
2022-10-06T09:39:49.417Z,66.31
2022-10-06T09:42:16.262Z,66.29
2022-10-06T09:44:50.099Z,66.50
2022-10-06T09:47:28.856Z,66.40
2022-10-06T09:50:12.447Z,66.43
2022-10-06T09:52:41.957Z,66.28
2022-10-06T09:55:17.862Z,66.47
2022-10-06T09:57:49.354Z,66.54
2022-10-06T10:00:29.442Z,66.82
2022-10-06T10:03:07.789Z,66.88
2022-10-06T10:05:36.974Z,66.62
2022-10-06T10:08:32.581Z,66.56
2022-10-06T10:11:39.032Z,66.91
2022-10-06T10:14:16.951Z,66.90
2022-10-06T10:16:43.901Z,66.57
2022-10-06T10:19:25.885Z,66.79
2022-10-06T10:21:53.233Z,66.60
2022-10-06T10:24:31.154Z,66.56
2022-10-06T10:27:08.790Z,66.48
2022-10-06T10:30:01.729Z,66.64
2022-10-06T10:32:51.982Z,66.52
2022-10-06T10:35:20.781Z,66.72
2022-10-06T10:37:51.768Z,66.35
2022-10-06T10:40:54.045Z,66.61
2022-10-06T10:43:22.188Z,66.72
2022-10-06T10:45:56.064Z,66.62
2022-10-06T10:48:33.507Z,66.75
2022-10-06T10:51:15.286Z,66.77
2022-10-06T10:53:48.410Z,66.79
2022-10-06T10:56:16.638Z,66.73
2022-10-06T10:58:44.441Z,66.51
2022-10-06T11:01:33.076Z,66.63
2022-10-06T11:04:00.887Z,66.44
2022-10-06T11:06:55.903Z,66.69
2022-10-06T11:09:31.167Z,66.67
2022-10-06T11:12:20.120Z,66.66
2022-10-06T11:15:04.287Z,66.79
2022-10-06T11:17:47.229Z,66.58
2022-10-06T11:20:33.574Z,66.76
2022-10-06T11:23:26.368Z,67.03
2022-10-06T11:26:09.822Z,66.92
2022-10-06T11:28:45.276Z,66.76
2022-10-06T11:31:22.626Z,66.49
2022-10-06T11:33:54.507Z,66.88
2022-10-06T11:36:39.779Z,66.78
2022-10-06T11:39:46.230Z,66.85
2022-10-06T11:42:49.668Z,66.68
2022-10-06T11:45:17.516Z,66.60
2022-10-06T11:48:10.876Z,66.72
2022-10-06T11:50:39.263Z,66.46
2022-10-06T11:53:06.701Z,66.70
2022-10-06T11:55:33.461Z,66.70
2022-10-06T11:58:37.336Z,66.48
2022-10-06T12:01:02.128Z,66.60
2022-10-06T12:03:30.741Z,66.61
2022-10-06T12:05:57.712Z,66.45
2022-10-06T12:08:39.218Z,66.60
2022-10-06T12:11:42.240Z,66.19
2022-10-06T12:16:13.878Z,66.31
2022-10-06T12:17:21.146Z,66.24
2022-10-06T12:20:12.800Z,66.16
2022-10-06T12:22:46.879Z,66.25
2022-10-06T12:25:15.002Z,66.18
2022-10-06T12:28:04.350Z,66.29
2022-10-06T12:30:42.280Z,66.08
2022-10-06T12:33:17.793Z,66.26
2022-10-06T12:35:45.237Z,66.04
2022-10-06T12:38:33.891Z,66.13
2022-10-06T12:41:01.750Z,65.89
2022-10-06T12:43:32.913Z,65.88
2022-10-06T12:46:00.966Z,66.14
2022-10-06T12:48:36.012Z,65.76
2022-10-06T12:51:38.870Z,66.11
2022-10-06T12:54:17.317Z,66.10
2022-10-06T12:56:44.280Z,66.02
2022-10-06T12:59:24.564Z,65.83
2022-10-06T13:01:59.448Z,65.99
2022-10-06T13:04:30.337Z,65.78
2022-10-06T13:06:57.438Z,65.89
2022-10-06T13:09:23.945Z,65.61
2022-10-06T13:11:50.628Z,65.73
2022-10-06T13:14:17.207Z,65.87
2022-10-06T13:16:47.055Z,65.64
2022-10-06T13:19:25.616Z,65.64
2022-10-06T13:21:52.791Z,65.64
2022-10-06T13:24:26.737Z,65.79
2022-10-06T13:26:54.768Z,65.86
2022-10-06T13:29:25.738Z,65.68
2022-10-06T13:31:54.097Z,65.65
2022-10-06T13:34:30.191Z,65.63
2022-10-06T13:36:58.984Z,65.44
2022-10-06T13:39:31.579Z,65.56
2022-10-06T13:42:03.715Z,65.75
2022-10-06T13:44:37.974Z,65.45
2022-10-06T13:47:14.921Z,65.24
2022-10-06T13:49:50.675Z,65.19
2022-10-06T13:52:23.361Z,65.36
2022-10-06T13:54:54.876Z,65.41
2022-10-06T13:57:33.412Z,65.49
2022-10-06T14:00:19.243Z,65.68
2022-10-06T14:02:56.893Z,65.23
2022-10-06T14:05:45.766Z,65.29
2022-10-06T14:08:12.321Z,65.40
2022-10-06T14:10:49.188Z,65.33
2022-10-06T14:13:38.358Z,65.46
2022-10-06T14:16:09.500Z,65.33
2022-10-06T14:18:47.244Z,65.50
2022-10-06T14:21:19.031Z,65.36
2022-10-06T14:23:53.168Z,65.30
2022-10-06T14:26:27.477Z,65.45
2022-10-06T14:28:54.515Z,65.55
2022-10-06T14:31:22.023Z,65.48
2022-10-06T14:33:52.092Z,65.37
2022-10-06T14:36:29.729Z,65.53
2022-10-06T14:38:57.871Z,65.43
2022-10-06T14:41:27.700Z,65.98
2022-10-06T14:43:55.508Z,66.07
2022-10-06T14:46:22.966Z,66.03
2022-10-06T14:48:49.591Z,65.94
2022-10-06T14:51:17.128Z,66.30
2022-10-06T14:53:44.261Z,66.43
2022-10-06T14:56:14.453Z,66.38
2022-10-06T14:58:44.898Z,66.59
2022-10-06T15:01:14.573Z,66.90
2022-10-06T15:03:42.664Z,66.82
2022-10-06T15:06:30.854Z,66.93
2022-10-06T15:08:59.280Z,66.92
2022-10-06T15:11:28.492Z,67.24
2022-10-06T15:13:57.305Z,67.13
2022-10-06T15:16:24.526Z,67.23
2022-10-06T15:18:52.108Z,67.50
2022-10-06T15:21:19.664Z,67.41
2022-10-06T15:23:48.068Z,67.45
2022-10-06T15:26:33.705Z,67.46
2022-10-06T15:29:03.245Z,67.66
2022-10-06T15:31:33.048Z,67.51
2022-10-06T15:34:01.407Z,67.49
2022-10-06T15:36:30.094Z,67.46
2022-10-06T15:38:58.318Z,67.57
2022-10-06T15:41:25.182Z,67.62
2022-10-06T15:43:56.317Z,67.88
2022-10-06T15:46:37.240Z,67.71
2022-10-06T15:49:06.419Z,67.79
2022-10-06T15:51:50.272Z,67.97
2022-10-06T15:54:19.392Z,67.89
2022-10-06T15:56:50.442Z,68.03
2022-10-06T15:59:17.762Z,67.87
2022-10-06T16:01:49.914Z,68.11
2022-10-06T16:04:33.037Z,68.38
2022-10-06T16:06:59.879Z,68.32
2022-10-06T16:09:33.829Z,68.16
2022-10-06T16:12:02.763Z,68.31
2022-10-06T16:14:30.123Z,68.15
2022-10-06T16:16:59.861Z,68.19
2022-10-06T16:19:27.792Z,68.35
2022-10-06T16:21:58.728Z,68.36
2022-10-06T16:24:26.492Z,68.44
2022-10-06T16:26:53.811Z,68.54
2022-10-06T16:29:21.621Z,68.36
2022-10-06T16:31:48.788Z,68.33
2022-10-06T16:34:15.685Z,68.54
2022-10-06T16:36:42.574Z,68.59
2022-10-06T16:39:18.013Z,68.56
2022-10-06T16:41:44.594Z,68.60
2022-10-06T16:44:11.451Z,68.81
2022-10-06T16:46:38.525Z,68.67
2022-10-06T16:49:05.814Z,68.74
2022-10-06T16:51:34.242Z,68.85
2022-10-06T16:54:04.751Z,68.75
2022-10-06T16:56:34.209Z,68.90
2022-10-06T16:59:04.792Z,68.89
2022-10-06T17:01:34.513Z,68.93
2022-10-06T17:04:03.491Z,69.00
2022-10-06T17:06:31.585Z,69.11
2022-10-06T17:08:58.152Z,69.04
2022-10-06T17:11:25.543Z,69.17
2022-10-06T17:13:59.866Z,69.17
2022-10-06T17:16:29.310Z,68.98
2022-10-06T17:18:56.984Z,69.29
2022-10-06T17:21:45.020Z,69.31
2022-10-06T17:24:11.086Z,69.25
2022-10-06T17:26:39.783Z,69.29
2022-10-06T17:29:13.814Z,69.44
2022-10-06T17:31:42.387Z,69.46
2022-10-06T17:34:12.013Z,69.43
2022-10-06T17:36:39.799Z,69.49
2022-10-06T17:39:07.849Z,69.49
2022-10-06T17:41:40.164Z,69.53
2022-10-06T17:44:09.456Z,69.62
2022-10-06T17:46:44.324Z,69.65
2022-10-06T17:49:13.201Z,69.64
2022-10-06T17:51:41.306Z,69.77
2022-10-06T17:54:12.969Z,69.72
2022-10-06T17:56:39.547Z,69.66
2022-10-06T17:59:08.132Z,69.82
2022-10-06T18:01:35.834Z,69.76
2022-10-06T18:04:04.412Z,69.70
2022-10-06T18:06:33.429Z,69.79
2022-10-06T18:09:02.411Z,69.82
2022-10-06T18:11:38.321Z,69.95
2022-10-06T18:14:07.599Z,69.78
2022-10-06T18:16:37.177Z,70.09
2022-10-06T18:19:09.576Z,70.11
2022-10-06T18:21:40.300Z,70.05
2022-10-06T18:24:07.590Z,70.30
2022-10-06T18:26:38.178Z,70.27
2022-10-06T18:29:06.696Z,70.18
2022-10-06T18:31:33.866Z,70.33
2022-10-06T18:36:47.490Z,70.49
2022-10-06T18:39:14.056Z,70.50
2022-10-06T18:41:41.128Z,70.51
2022-10-06T18:44:08.919Z,70.49
2022-10-06T18:46:54.357Z,70.58
2022-10-06T18:49:23.239Z,70.56
2022-10-06T18:51:55.873Z,70.52
2022-10-06T18:54:30.256Z,70.61
2022-10-06T18:56:57.284Z,70.57
2022-10-06T18:59:30.078Z,70.47
2022-10-06T19:01:58.147Z,70.74
2022-10-06T19:04:24.747Z,70.68
2022-10-06T19:06:55.812Z,70.64
2022-10-06T19:09:24.655Z,70.76
2022-10-06T19:11:55.628Z,70.65
2022-10-06T19:14:26.457Z,70.59
2022-10-06T19:16:59.008Z,70.84
2022-10-06T19:19:26.733Z,70.94
2022-10-06T19:22:02.703Z,70.77
2022-10-06T19:24:37.632Z,70.84
2022-10-06T19:27:09.435Z,70.82
2022-10-06T19:29:37.859Z,70.87
2022-10-06T19:32:05.652Z,70.89
2022-10-06T19:34:34.850Z,70.86
2022-10-06T19:37:01.377Z,71.02
2022-10-06T19:39:32.712Z,71.00
2022-10-06T19:42:17.912Z,70.95
2022-10-06T19:44:44.596Z,70.77
2022-10-06T19:47:14.633Z,70.84
2022-10-06T19:49:41.998Z,70.97
2022-10-06T19:52:09.873Z,70.92
2022-10-06T19:54:37.171Z,71.09
2022-10-06T19:57:05.614Z,71.19
2022-10-06T19:59:33.194Z,71.03
2022-10-06T20:01:59.780Z,70.93
2022-10-06T20:04:26.470Z,70.85
2022-10-06T20:06:53.017Z,70.93
2022-10-06T20:09:22.073Z,70.92
2022-10-06T20:11:50.341Z,70.98
2022-10-06T20:14:21.989Z,71.09
2022-10-06T20:16:49.274Z,70.94
2022-10-06T20:19:16.567Z,71.03
2022-10-06T20:21:43.182Z,71.26
2022-10-06T20:24:15.371Z,71.15
2022-10-06T20:26:42.772Z,71.11
2022-10-06T20:29:11.896Z,71.10
2022-10-06T20:31:43.708Z,71.22
2022-10-06T20:34:12.740Z,71.31
2022-10-06T20:36:39.343Z,71.20
2022-10-06T20:39:30.563Z,71.17
2022-10-06T20:41:57.137Z,71.07
2022-10-06T20:44:23.870Z,71.34
2022-10-06T20:46:51.257Z,71.13
2022-10-06T20:49:18.077Z,71.14
2022-10-06T20:51:47.355Z,71.24
2022-10-06T20:54:16.077Z,71.50
2022-10-06T20:56:43.018Z,71.26
2022-10-06T20:59:11.733Z,71.24
2022-10-06T21:01:39.973Z,71.30
2022-10-06T21:04:06.796Z,71.48
2022-10-06T21:06:33.330Z,71.39
2022-10-06T21:09:01.397Z,71.50
2022-10-06T21:11:28.219Z,71.23
2022-10-06T21:13:54.867Z,71.23
2022-10-06T21:16:32.058Z,71.45
2022-10-06T21:19:03.577Z,71.33
2022-10-06T21:21:30.400Z,71.71
2022-10-06T21:23:57.198Z,71.53
2022-10-06T21:26:25.986Z,71.53
2022-10-06T21:28:52.738Z,71.48
2022-10-06T21:31:21.734Z,71.50
2022-10-06T21:33:50.307Z,71.51
2022-10-06T21:36:24.813Z,71.40
2022-10-06T21:38:56.280Z,71.50
2022-10-06T21:41:31.886Z,71.44
2022-10-06T21:44:08.810Z,71.39
2022-10-06T21:46:47.135Z,71.22
2022-10-06T21:49:16.235Z,71.29
2022-10-06T21:51:45.635Z,71.17
2022-10-06T21:54:12.506Z,71.25
2022-10-06T21:56:39.941Z,71.37
2022-10-06T21:59:07.171Z,71.33
2022-10-06T22:01:38.844Z,71.34
2022-10-06T22:04:05.712Z,71.60
2022-10-06T22:06:34.084Z,71.57
2022-10-06T22:09:01.272Z,71.45
2022-10-06T22:11:30.979Z,71.40
2022-10-06T22:14:03.391Z,71.25
2022-10-06T22:16:32.539Z,71.40
2022-10-06T22:19:01.515Z,71.33
2022-10-06T22:21:30.690Z,71.33
2022-10-06T22:24:01.891Z,71.35
2022-10-06T22:26:29.918Z,71.47
2022-10-06T22:28:57.325Z,71.57
2022-10-06T22:31:26.222Z,71.51
2022-10-06T22:33:59.603Z,71.27
2022-10-06T22:36:27.612Z,71.45
2022-10-06T22:38:54.739Z,71.57
2022-10-06T22:41:21.701Z,71.64
2022-10-06T22:43:48.721Z,71.31
2022-10-06T22:46:15.282Z,71.43
2022-10-06T22:48:41.921Z,71.42
2022-10-06T22:51:08.623Z,71.30
2022-10-06T22:53:35.381Z,71.66
2022-10-06T22:56:03.732Z,71.49
2022-10-06T22:58:30.333Z,71.44
2022-10-06T23:00:56.945Z,71.67
2022-10-06T23:03:23.889Z,71.48
2022-10-06T23:05:55.750Z,71.27
2022-10-06T23:08:22.327Z,71.44
2022-10-06T23:10:49.081Z,71.35
2022-10-06T23:13:15.632Z,71.43
2022-10-06T23:15:42.194Z,71.78
2022-10-06T23:18:08.871Z,71.46
2022-10-06T23:20:35.394Z,71.57
2022-10-06T23:23:02.108Z,71.66
2022-10-06T23:25:28.684Z,71.47
2022-10-06T23:27:55.211Z,71.71
2022-10-06T23:30:21.718Z,71.58
2022-10-06T23:32:48.248Z,71.70
2022-10-06T23:35:14.865Z,71.68
2022-10-06T23:37:41.651Z,71.67
2022-10-06T23:40:08.908Z,71.74
2022-10-06T23:42:35.451Z,71.82
2022-10-06T23:45:02.002Z,71.62
2022-10-06T23:47:28.499Z,71.58
2022-10-06T23:49:55.219Z,71.28
2022-10-06T23:52:21.764Z,71.50
2022-10-06T23:54:48.681Z,71.57
2022-10-06T23:57:15.177Z,71.65
2022-10-06T23:59:41.686Z,71.62
